Time;durP1;ratioP1;P1;durP2;ratioP2;P2;SDS_P1;SDS_P2;PMS_P1;PMS_P2;Temp;Humidity;BMP_temperature;BMP_pressure;BME280_temperature;BME280_humidity;BME280_pressure;Samples;Min_cycle;Max_cycle;Signal;HPM_P1;HPM_P2
2023/08/02 00:01:25;;;;;;;12.30;3.63;;;15.30;99.90;;;;;;5047511;28;20060;-74
2023/08/02 00:03:51;;;;;;;12.68;3.75;;;15.30;99.90;;;;;;5049385;28;264945;-74
2023/08/02 00:06:17;;;;;;;10.50;3.17;;;15.30;99.90;;;;;;5071589;28;20040;-74
2023/08/02 00:08:43;;;;;;;15.05;3.50;;;15.30;99.90;;;;;;5065834;28;262125;-74
2023/08/02 00:11:16;;;;;;;14.57;3.70;;;15.30;99.90;;;;;;5067427;28;20049;-74
2023/08/02 00:13:43;;;;;;;12.20;3.90;;;15.30;99.90;;;;;;5054421;28;173432;-74
2023/08/02 00:16:14;;;;;;;11.88;4.00;;;15.30;99.90;;;;;;5067128;28;20057;-74
2023/08/02 00:18:40;;;;;;;16.02;4.30;;;15.30;99.90;;;;;;5050848;28;163017;-74
2023/08/02 00:21:06;;;;;;;11.88;4.00;;;15.30;99.90;;;;;;5069978;28;20411;-74
2023/08/02 00:23:33;;;;;;;14.13;4.47;;;15.30;99.90;;;;;;5057549;28;172643;-74
2023/08/02 00:25:59;;;;;;;12.15;4.35;;;15.30;99.90;;;;;;5068041;28;20525;-74
2023/08/02 00:28:25;;;;;;;16.58;4.63;;;15.30;99.90;;;;;;5063248;28;256827;-74
2023/08/02 00:30:51;;;;;;;16.42;3.80;;;15.30;99.90;;;;;;5071186;28;20064;-74
2023/08/02 00:33:17;;;;;;;11.07;4.30;;;15.30;99.90;;;;;;5050794;28;143328;-74
2023/08/02 00:35:50;;;;;;;13.27;4.05;;;15.30;99.90;;;;;;5061704;28;20060;-74
2023/08/02 00:38:16;;;;;;;13.80;4.35;;;15.30;99.90;;;;;;5048027;28;195511;-74
2023/08/02 00:40:42;;;;;;;13.13;4.60;;;15.30;99.90;;;;;;5069403;28;20055;-73
2023/08/02 00:43:08;;;;;;;12.88;4.82;;;15.30;99.90;;;;;;5061182;28;270447;-73
2023/08/02 00:45:36;;;;;;;17.88;5.10;;;15.30;99.90;;;;;;5061925;28;20045;-73
2023/08/02 00:48:02;;;;;;;14.75;4.90;;;15.30;99.90;;;;;;5042748;28;71565;-73
2023/08/02 00:50:32;;;;;;;13.98;4.85;;;15.30;99.90;;;;;;5064327;28;20414;-74
2023/08/02 00:52:59;;;;;;;12.80;4.50;;;15.30;99.90;;;;;;5036039;28;105453;-74
2023/08/02 00:55:26;;;;;;;12.20;4.30;;;15.30;99.90;;;;;;5066230;28;20025;-73
2023/08/02 00:57:52;;;;;;;13.60;5.00;;;15.20;99.90;;;;;;5049153;28;210248;-73
2023/08/02 01:00:19;;;;;;;18.27;4.82;;;15.30;99.90;;;;;;5060812;28;20051;-73
2023/08/02 01:02:45;;;;;;;14.73;4.60;;;15.30;99.90;;;;;;5055537;28;271414;-73
2023/08/02 01:05:12;;;;;;;16.48;4.63;;;15.20;99.90;;;;;;5073086;28;20046;-73
2023/08/02 01:07:47;;;;;;;12.70;4.05;;;15.20;99.90;;;;;;5056395;28;71940;-73
2023/08/02 01:10:26;;;;;;;13.52;4.38;;;15.20;99.90;;;;;;5044334;28;20057;-73
2023/08/02 01:12:55;;;;;;;15.38;4.40;;;15.20;99.90;;;;;;5051763;28;272208;-73
2023/08/02 01:15:22;;;;;;;18.10;4.68;;;15.20;99.90;;;;;;5066642;28;20096;-73
2023/08/02 01:17:51;;;;;;;15.68;4.30;;;15.20;99.90;;;;;;5062403;28;100057;-73
2023/08/02 01:20:17;;;;;;;13.80;4.50;;;15.20;99.90;;;;;;5065769;28;20052;-72
2023/08/02 01:22:43;;;;;;;17.58;4.38;;;15.20;99.90;;;;;;5060072;28;270561;-73
2023/08/02 01:25:09;;;;;;;18.30;4.72;;;15.20;99.90;;;;;;5065380;28;20056;-73
2023/08/02 01:27:42;;;;;;;14.30;4.47;;;15.20;99.90;;;;;;5055402;28;144600;-73
2023/08/02 01:30:13;;;;;;;13.30;4.30;;;15.20;99.90;;;;;;5072430;28;20067;-72
2023/08/02 01:32:39;;;;;;;15.10;4.32;;;15.10;99.90;;;;;;5034783;28;241971;-73
2023/08/02 01:35:07;;;;;;;14.13;4.68;;;15.20;99.90;;;;;;5065860;28;20482;-73
2023/08/02 01:37:37;;;;;;;15.13;4.45;;;15.20;99.90;;;;;;5048363;28;142327;-73
2023/08/02 01:40:04;;;;;;;14.25;4.40;;;15.20;99.90;;;;;;5042094;28;20063;-72
2023/08/02 01:42:30;;;;;;;14.20;4.55;;;15.20;99.90;;;;;;5041029;28;219437;-73
2023/08/02 01:44:56;;;;;;;14.60;4.80;;;15.20;99.90;;;;;;5066676;28;20094;-73
2023/08/02 01:47:23;;;;;;;13.55;4.65;;;15.20;99.90;;;;;;5047211;28;129381;-73
2023/08/02 01:49:49;;;;;;;17.73;4.70;;;15.20;99.90;;;;;;5037681;28;20064;-73
2023/08/02 01:52:15;;;;;;;16.08;4.95;;;15.20;99.90;;;;;;5016460;28;267209;-73
2023/08/02 01:54:41;;;;;;;16.30;4.53;;;15.20;99.90;;;;;;5056986;28;20059;-72
2023/08/02 01:57:07;;;;;;;17.80;5.03;;;15.10;99.90;;;;;;5055922;28;172760;-73
2023/08/02 01:59:33;;;;;;;18.02;5.03;;;15.20;99.90;;;;;;5070964;28;20048;-72
2023/08/02 02:01:59;;;;;;;17.58;4.60;;;15.20;99.90;;;;;;5049493;28;276058;-73
2023/08/02 02:04:25;;;;;;;17.30;5.05;;;15.20;99.90;;;;;;5077907;28;20043;-73
2023/08/02 02:06:51;;;;;;;18.47;5.13;;;15.20;99.90;;;;;;5051744;28;275003;-72
2023/08/02 02:09:17;;;;;;;17.80;4.60;;;15.20;99.90;;;;;;5061081;28;20059;-73
2023/08/02 02:11:44;;;;;;;16.83;4.93;;;15.20;99.90;;;;;;5050596;28;266796;-73
2023/08/02 02:14:10;;;;;;;14.70;4.65;;;15.10;99.90;;;;;;5058812;28;20049;-73
2023/08/02 02:16:36;;;;;;;18.80;5.22;;;15.10;99.90;;;;;;5050873;28;275317;-72
2023/08/02 02:19:02;;;;;;;16.77;4.90;;;15.10;99.90;;;;;;5053671;28;20052;-73
2023/08/02 02:21:28;;;;;;;17.20;4.60;;;15.20;99.90;;;;;;5065469;28;20055;-73
2023/08/02 02:23:54;;;;;;;15.27;4.53;;;15.20;99.90;;;;;;5065153;28;267763;-73
2023/08/02 02:26:20;;;;;;;15.75;4.45;;;15.20;99.90;;;;;;5066706;28;20056;-73
2023/08/02 02:28:46;;;;;;;21.70;4.95;;;15.10;99.90;;;;;;5042971;28;115693;-73
2023/08/02 02:31:12;;;;;;;16.40;5.05;;;15.10;99.90;;;;;;5046007;28;20419;-73
2023/08/02 02:33:38;;;;;;;17.83;5.07;;;15.10;99.90;;;;;;5049141;28;50398;-73
2023/08/02 02:36:06;;;;;;;16.42;4.85;;;15.10;99.90;;;;;;5065725;28;20062;-73
2023/08/02 02:38:32;;;;;;;16.85;4.95;;;15.10;99.90;;;;;;5059794;28;271424;-73
2023/08/02 02:40:58;;;;;;;18.52;5.28;;;15.10;99.90;;;;;;5065938;28;20415;-73
2023/08/02 02:43:24;;;;;;;19.65;5.28;;;15.10;99.90;;;;;;5052823;28;71688;-73
2023/08/02 02:45:50;;;;;;;20.33;5.00;;;15.10;99.90;;;;;;5062748;28;20044;-73
2023/08/02 02:48:16;;;;;;;18.50;5.28;;;15.10;99.90;;;;;;5044348;28;20510;-72
2023/08/02 02:50:43;;;;;;;22.10;4.93;;;15.10;99.90;;;;;;5043899;28;20053;-72
2023/08/02 02:53:09;;;;;;;18.10;5.28;;;15.10;99.90;;;;;;5020817;28;210189;-73
2023/08/02 02:55:35;;;;;;;20.80;5.70;;;15.10;99.90;;;;;;5046481;28;20055;-72
2023/08/02 02:58:01;;;;;;;20.98;5.40;;;15.10;99.90;;;;;;5055053;28;279467;-73
2023/08/02 03:00:28;;;;;;;18.92;5.55;;;15.10;99.90;;;;;;5064949;28;20415;-73
2023/08/02 03:02:54;;;;;;;16.15;5.40;;;15.10;99.90;;;;;;5057752;28;109152;-73
2023/08/02 03:05:20;;;;;;;24.77;5.75;;;15.10;99.90;;;;;;5063182;28;20052;-73
2023/08/02 03:07:46;;;;;;;23.02;6.07;;;15.10;99.90;;;;;;5062714;28;119463;-73
2023/08/02 03:10:12;;;;;;;26.67;6.45;;;15.10;99.90;;;;;;5068357;28;20067;-73
2023/08/02 03:12:38;;;;;;;23.23;5.57;;;15.10;99.90;;;;;;5054050;28;195977;-72
2023/08/02 03:15:05;;;;;;;25.80;6.05;;;15.10;99.90;;;;;;5041418;28;20056;-73
2023/08/02 03:17:31;;;;;;;21.30;5.97;;;15.10;99.90;;;;;;5047796;28;24491;-72
2023/08/02 03:19:57;;;;;;;24.52;6.15;;;15.10;99.90;;;;;;5028030;28;20061;-73
2023/08/02 03:22:23;;;;;;;24.13;6.32;;;15.10;99.90;;;;;;5046332;28;276632;-73
2023/08/02 03:24:49;;;;;;;22.55;6.00;;;15.10;99.90;;;;;;5061289;28;20044;-73
2023/08/02 03:27:16;;;;;;;24.88;7.20;;;15.10;99.90;;;;;;5062255;28;182220;-73
2023/08/02 03:29:42;;;;;;;25.98;6.50;;;15.10;99.90;;;;;;5079854;28;20036;-73
2023/08/02 03:32:08;;;;;;;23.67;6.63;;;15.10;99.90;;;;;;5061019;28;85746;-74
2023/08/02 03:34:34;;;;;;;25.17;7.30;;;15.10;99.90;;;;;;5050643;28;20045;-74
2023/08/02 03:37:00;;;;;;;24.95;6.55;;;15.10;99.90;;;;;;5055454;28;86236;-73
2023/08/02 03:39:27;;;;;;;26.80;6.82;;;15.10;99.90;;;;;;5039529;28;20049;-74
2023/08/02 03:41:54;;;;;;;28.02;6.95;;;15.10;99.90;;;;;;5016189;28;253087;-73
2023/08/02 03:44:21;;;;;;;24.45;6.65;;;15.20;99.90;;;;;;5066483;28;20426;-73
2023/08/02 03:46:47;;;;;;;19.70;6.68;;;15.10;99.90;;;;;;5053366;28;266232;-73
2023/08/02 03:49:13;;;;;;;23.90;6.45;;;15.10;99.90;;;;;;5060083;28;20048;-73
2023/08/02 03:51:39;;;;;;;26.53;7.13;;;15.10;99.90;;;;;;5038795;28;259691;-73
2023/08/02 03:54:06;;;;;;;25.65;7.25;;;15.10;99.90;;;;;;5060034;28;20053;-74
2023/08/02 03:56:32;;;;;;;26.25;6.38;;;15.10;99.90;;;;;;5070762;28;20048;-74
2023/08/02 03:58:58;;;;;;;20.30;6.70;;;15.10;99.90;;;;;;5043848;28;20051;-73
2023/08/02 04:01:24;;;;;;;25.40;7.00;;;15.00;99.90;;;;;;5068295;28;20052;-73
2023/08/02 04:03:50;;;;;;;21.90;6.97;;;15.00;99.90;;;;;;5044734;28;268508;-73
2023/08/02 04:06:16;;;;;;;26.15;7.15;;;15.00;99.90;;;;;;5048667;28;20049;-73
2023/08/02 04:08:42;;;;;;;24.13;6.85;;;15.00;99.90;;;;;;5038397;28;94360;-75
2023/08/02 04:11:09;;;;;;;20.80;7.20;;;15.00;99.90;;;;;;5069803;28;20071;-74
2023/08/02 04:13:35;;;;;;;24.80;6.95;;;15.00;99.90;;;;;;5047717;28;20037;-73
2023/08/02 04:16:02;;;;;;;22.88;7.30;;;15.00;99.90;;;;;;5089263;28;20048;-74
2023/08/02 04:18:28;;;;;;;19.13;7.18;;;15.00;99.90;;;;;;5054562;28;20422;-73
2023/08/02 04:20:54;;;;;;;25.25;7.40;;;14.90;99.90;;;;;;5058225;28;20045;-73
2023/08/02 04:23:20;;;;;;;22.52;7.47;;;14.90;99.90;;;;;;5058178;28;101383;-74
2023/08/02 04:25:46;;;;;;;19.92;6.93;;;14.90;99.90;;;;;;5052126;28;20048;-74
2023/08/02 04:28:12;;;;;;;28.70;7.60;;;14.90;99.90;;;;;;5051631;28;252193;-74
2023/08/02 04:30:39;;;;;;;19.70;7.40;;;14.90;99.90;;;;;;5068594;28;20056;-74
2023/08/02 04:33:05;;;;;;;26.60;7.97;;;14.80;99.90;;;;;;5062449;28;265721;-74
2023/08/02 04:35:31;;;;;;;26.25;7.90;;;14.80;99.90;;;;;;5066148;28;20063;-73
2023/08/02 04:37:57;;;;;;;23.75;7.65;;;14.80;99.90;;;;;;5052309;28;284360;-73
2023/08/02 04:40:23;;;;;;;18.42;7.18;;;14.80;99.90;;;;;;5064413;28;20056;-73
2023/08/02 04:42:50;;;;;;;19.25;7.40;;;14.80;99.90;;;;;;5052553;28;167138;-73
2023/08/02 04:45:16;;;;;;;19.88;7.28;;;14.70;99.90;;;;;;5062744;28;20056;-73
2023/08/02 04:47:43;;;;;;;20.10;7.22;;;14.80;99.90;;;;;;5060647;28;263411;-73
2023/08/02 04:50:09;;;;;;;21.85;7.15;;;14.70;99.90;;;;;;5072752;28;20056;-73
2023/08/02 04:52:35;;;;;;;20.73;7.53;;;14.80;99.90;;;;;;5029601;28;128159;-73
2023/08/02 04:55:01;;;;;;;18.83;7.78;;;14.80;99.90;;;;;;5062378;28;20045;-72
2023/08/02 04:57:27;;;;;;;19.73;8.05;;;14.80;99.90;;;;;;5062853;28;243250;-72
2023/08/02 04:59:53;;;;;;;21.30;7.50;;;14.70;99.90;;;;;;5061028;28;20053;-73
2023/08/02 05:02:21;;;;;;;19.65;7.50;;;14.70;99.90;;;;;;5056090;28;279841;-72
2023/08/02 05:04:52;;;;;;;24.08;7.75;;;14.80;99.90;;;;;;5079083;28;20040;-72
2023/08/02 05:07:18;;;;;;;21.55;7.65;;;14.80;99.90;;;;;;5053882;28;253422;-72
2023/08/02 05:09:44;;;;;;;20.95;7.80;;;14.80;99.90;;;;;;5073179;28;20059;-72
2023/08/02 05:12:10;;;;;;;17.55;7.47;;;14.80;99.90;;;;;;5054728;28;268764;-72
2023/08/02 05:14:37;;;;;;;22.13;7.85;;;14.90;99.90;;;;;;5070963;28;20047;-72
2023/08/02 05:17:07;;;;;;;21.88;7.72;;;14.90;99.90;;;;;;5053518;28;263885;-72
2023/08/02 05:19:34;;;;;;;19.35;7.80;;;14.90;99.90;;;;;;5080312;28;20064;-72
2023/08/02 05:22:00;;;;;;;20.73;7.47;;;14.90;99.90;;;;;;5057900;28;100782;-72
2023/08/02 05:24:27;;;;;;;23.73;7.63;;;14.90;99.90;;;;;;5076947;28;20052;-72
2023/08/02 05:26:53;;;;;;;23.80;7.22;;;15.00;99.90;;;;;;5051524;28;268047;-71
2023/08/02 05:29:19;;;;;;;22.13;7.70;;;15.00;99.90;;;;;;5073105;28;20071;-72
2023/08/02 05:31:45;;;;;;;21.65;7.55;;;15.10;99.90;;;;;;5050944;28;284231;-71
2023/08/02 05:34:11;;;;;;;20.40;7.38;;;15.10;99.90;;;;;;5080380;28;20045;-71
2023/08/02 05:36:37;;;;;;;18.10;7.50;;;15.20;99.90;;;;;;5048389;28;259347;-71
2023/08/02 05:39:03;;;;;;;19.33;7.47;;;15.20;99.90;;;;;;5058647;28;20052;-72
2023/08/02 05:41:29;;;;;;;24.90;7.85;;;15.20;99.90;;;;;;5067077;28;20071;-72
2023/08/02 05:43:55;;;;;;;20.95;7.93;;;15.20;99.90;;;;;;5069068;28;135249;-72
2023/08/02 05:46:21;;;;;;;15.88;6.70;;;15.30;99.90;;;;;;5067604;28;20055;-71
2023/08/02 05:48:49;;;;;;;19.52;7.53;;;15.30;99.90;;;;;;5054396;28;274452;-71
2023/08/02 05:51:16;;;;;;;17.17;7.43;;;15.40;99.90;;;;;;5066646;28;20387;-72
2023/08/02 05:53:42;;;;;;;21.92;8.05;;;15.50;99.90;;;;;;4993566;28;244451;-72
2023/08/02 05:56:08;;;;;;;18.50;7.40;;;15.60;99.90;;;;;;5064338;28;20114;-72
2023/08/02 05:58:34;;;;;;;17.15;7.63;;;15.70;99.90;;;;;;5058169;28;264837;-71
2023/08/02 06:01:00;;;;;;;20.33;7.63;;;15.80;99.90;;;;;;5064848;28;20056;-71
2023/08/02 06:03:26;;;;;;;19.23;8.15;;;16.00;99.90;;;;;;5056186;28;280118;-72
2023/08/02 06:05:52;;;;;;;17.77;6.97;;;16.20;99.90;;;;;;5061455;28;20045;-72
2023/08/02 06:08:18;;;;;;;17.13;7.85;;;16.10;99.90;;;;;;5051572;28;125437;-72
2023/08/02 06:10:44;;;;;;;18.75;7.72;;;16.10;99.90;;;;;;5062369;28;20044;-72
2023/08/02 06:13:10;;;;;;;16.05;7.38;;;16.20;99.90;;;;;;5048851;28;223643;-72
2023/08/02 06:15:37;;;;;;;20.10;7.97;;;16.30;99.90;;;;;;5063415;28;20049;-72
2023/08/02 06:18:03;;;;;;;14.70;7.32;;;16.30;99.90;;;;;;5063568;28;265798;-72
2023/08/02 06:20:29;;;;;;;17.40;7.13;;;16.40;99.90;;;;;;5061609;28;20399;-72
2023/08/02 06:22:55;;;;;;;17.45;7.15;;;16.50;99.90;;;;;;5056552;28;276231;-72
2023/08/02 06:25:21;;;;;;;17.48;6.40;;;16.60;99.90;;;;;;5064855;28;20550;-72
2023/08/02 06:27:47;;;;;;;19.10;7.07;;;16.40;99.90;;;;;;5058512;28;267985;-73
2023/08/02 06:30:14;;;;;;;17.75;6.78;;;16.40;99.90;;;;;;5070658;28;20201;-73
2023/08/02 06:32:40;;;;;;;16.30;6.15;;;16.30;99.90;;;;;;5057663;28;265214;-73
2023/08/02 06:35:06;;;;;;;16.23;6.30;;;16.30;99.90;;;;;;5066722;28;20053;-72
2023/08/02 06:37:33;;;;;;;15.55;5.72;;;16.40;99.90;;;;;;5046639;28;262743;-73
2023/08/02 06:39:59;;;;;;;17.52;5.80;;;16.50;99.90;;;;;;5067658;28;20052;-72
2023/08/02 06:42:25;;;;;;;16.05;6.07;;;16.60;99.90;;;;;;5052754;28;255035;-72
2023/08/02 06:44:51;;;;;;;14.90;6.10;;;16.70;99.90;;;;;;5068129;28;20044;-72
2023/08/02 06:47:17;;;;;;;14.90;5.93;;;16.80;99.90;;;;;;5050687;28;194050;-72
2023/08/02 06:49:43;;;;;;;20.50;6.00;;;16.90;99.90;;;;;;5075656;28;20041;-73
2023/08/02 06:52:09;;;;;;;11.30;5.25;;;16.90;99.90;;;;;;5017839;28;128606;-73
2023/08/02 06:54:35;;;;;;;18.50;5.35;;;16.90;99.90;;;;;;5046917;28;20049;-74
2023/08/02 06:57:02;;;;;;;14.73;5.50;;;16.80;99.90;;;;;;5038725;28;120693;-71
2023/08/02 06:59:28;;;;;;;13.23;4.85;;;16.80;99.90;;;;;;5075560;28;20048;-71
2023/08/02 07:01:54;;;;;;;14.52;5.05;;;16.80;99.90;;;;;;5050082;28;287602;-72
2023/08/02 07:04:20;;;;;;;15.20;5.43;;;16.70;99.90;;;;;;5055440;28;20378;-71
2023/08/02 07:06:46;;;;;;;14.82;5.25;;;16.70;99.90;;;;;;5050327;28;275137;-72
2023/08/02 07:09:14;;;;;;;15.32;5.47;;;16.60;99.90;;;;;;5061796;28;20059;-71
2023/08/02 07:11:40;;;;;;;15.95;5.25;;;16.60;99.90;;;;;;5044164;28;256763;-73
2023/08/02 07:14:06;;;;;;;13.77;4.80;;;16.50;99.90;;;;;;5061779;28;20057;-73
2023/08/02 07:16:32;;;;;;;15.57;4.70;;;16.50;99.90;;;;;;5069016;28;20501;-73
2023/08/02 07:19:02;;;;;;;14.65;4.75;;;16.40;99.90;;;;;;5039540;28;20036;-72
2023/08/02 07:21:29;;;;;;;14.45;5.47;;;16.40;99.90;;;;;;5065148;28;20054;-72
2023/08/02 07:23:55;;;;;;;17.08;4.85;;;16.30;99.90;;;;;;5064002;28;253737;-72
2023/08/02 07:26:25;;;;;;;17.90;4.63;;;16.20;99.90;;;;;;5059377;28;20059;-73
2023/08/02 07:28:51;;;;;;;19.33;4.95;;;16.20;99.90;;;;;;5051243;28;264380;-73
2023/08/02 07:31:17;;;;;;;13.75;4.40;;;16.20;99.90;;;;;;5067236;28;20049;-73
2023/08/02 07:33:45;;;;;;;14.43;4.93;;;16.20;99.90;;;;;;5056214;28;75080;-72
2023/08/02 07:36:15;;;;;;;13.68;4.57;;;16.30;99.90;;;;;;5064768;28;20056;-72
2023/08/02 07:38:42;;;;;;;13.73;4.93;;;16.30;99.90;;;;;;5059448;28;275104;-71
2023/08/02 07:41:09;;;;;;;13.73;4.43;;;16.40;99.90;;;;;;5065159;28;20047;-72
2023/08/02 07:43:35;;;;;;;12.40;4.50;;;16.40;99.90;;;;;;5065058;28;259273;-72
2023/08/02 07:46:01;;;;;;;15.60;4.47;;;16.40;99.90;;;;;;5062206;28;20049;-72
2023/08/02 07:48:27;;;;;;;14.10;4.40;;;16.40;99.90;;;;;;5062282;28;264808;-72
2023/08/02 07:50:53;;;;;;;11.40;4.10;;;16.50;99.90;;;;;;5062923;28;20056;-72
2023/08/02 07:53:19;;;;;;;12.70;4.03;;;16.40;99.90;;;;;;5029777;28;276839;-73
2023/08/02 07:55:45;;;;;;;15.52;4.63;;;16.40;99.90;;;;;;5067354;28;20060;-73
2023/08/02 07:58:11;;;;;;;14.55;4.30;;;16.40;99.90;;;;;;5057750;28;269171;-72
2023/08/02 08:00:38;;;;;;;16.55;4.78;;;16.40;99.90;;;;;;5069086;28;20064;-72
2023/08/02 08:03:04;;;;;;;14.48;4.38;;;16.40;99.90;;;;;;5057763;28;273664;-73
2023/08/02 08:05:30;;;;;;;17.58;4.82;;;16.30;99.90;;;;;;5066111;28;20052;-73
2023/08/02 08:07:57;;;;;;;12.43;4.30;;;16.30;99.90;;;;;;5055149;28;258236;-73
2023/08/02 08:10:23;;;;;;;14.20;4.68;;;16.20;99.90;;;;;;5065751;28;20059;-74
2023/08/02 08:12:49;;;;;;;14.63;4.30;;;16.20;99.90;;;;;;5062324;28;273097;-73
2023/08/02 08:15:15;;;;;;;13.77;4.13;;;16.10;99.90;;;;;;5076318;28;20060;-73
2023/08/02 08:17:41;;;;;;;13.80;4.60;;;16.00;99.90;;;;;;5060368;28;258934;-72
2023/08/02 08:20:08;;;;;;;16.92;5.00;;;16.10;99.90;;;;;;5073996;28;20056;-72
2023/08/02 08:22:34;;;;;;;14.88;4.50;;;16.00;99.90;;;;;;5053257;28;170500;-72
2023/08/02 08:25:00;;;;;;;18.50;5.28;;;15.90;99.90;;;;;;5074453;28;20064;-73
2023/08/02 08:27:26;;;;;;;20.65;5.70;;;15.80;99.90;;;;;;5055027;28;260182;-72
2023/08/02 08:29:52;;;;;;;15.00;5.07;;;15.80;99.90;;;;;;5058149;28;20044;-72
2023/08/02 08:32:18;;;;;;;16.27;5.20;;;15.70;99.90;;;;;;5058895;28;113849;-73
2023/08/02 08:34:44;;;;;;;17.02;4.88;;;15.60;99.90;;;;;;5064279;28;20052;-72
2023/08/02 08:37:11;;;;;;;20.23;5.32;;;15.50;99.90;;;;;;5069352;28;91458;-73
2023/08/02 08:39:37;;;;;;;16.60;5.75;;;15.50;99.90;;;;;;5058337;28;20067;-72
2023/08/02 08:42:07;;;;;;;16.67;5.22;;;15.40;99.90;;;;;;5054754;28;207163;-72
2023/08/02 08:44:37;;;;;;;16.65;5.38;;;15.50;99.90;;;;;;5072904;28;20071;-71
2023/08/02 08:47:07;;;;;;;23.10;5.75;;;15.40;99.90;;;;;;5043171;28;229960;-72
2023/08/02 08:49:34;;;;;;;18.42;5.70;;;15.40;99.90;;;;;;5048054;28;20487;-72
2023/08/02 08:52:05;;;;;;;18.83;5.70;;;15.30;99.90;;;;;;5025374;28;245004;-72
2023/08/02 08:54:32;;;;;;;22.88;6.00;;;15.30;99.90;;;;;;5041600;28;20060;-71
2023/08/02 08:57:00;;;;;;;15.32;5.88;;;15.40;99.90;;;;;;5053837;28;263095;-71
2023/08/02 08:59:26;;;;;;;15.10;5.60;;;15.40;99.90;;;;;;5076365;28;20052;-72
2023/08/02 09:01:54;;;;;;;20.10;6.22;;;15.50;99.90;;;;;;5055571;28;259875;-70
2023/08/02 09:04:20;;;;;;;20.10;6.05;;;15.50;99.90;;;;;;5068833;28;20057;-70
2023/08/02 09:06:46;;;;;;;18.77;6.20;;;15.50;99.90;;;;;;5052436;28;259838;-71
2023/08/02 09:09:16;;;;;;;18.85;6.53;;;15.60;99.90;;;;;;5067980;28;20059;-70
2023/08/02 09:11:45;;;;;;;23.45;6.18;;;15.70;99.90;;;;;;5050377;28;272688;-70
2023/08/02 09:14:16;;;;;;;18.40;6.30;;;15.80;99.90;;;;;;5078004;28;20053;-70
2023/08/02 09:16:59;;;;;;;18.42;6.88;;;15.80;99.90;;;;;;5047109;28;261862;-71
2023/08/02 09:19:31;;;;;;;18.70;6.60;;;15.80;99.90;;;;;;5052090;28;20060;-71
2023/08/02 09:22:14;;;;;;;22.38;7.30;;;15.80;99.90;;;;;;5052865;28;285846;-70
2023/08/02 09:24:43;;;;;;;20.33;6.97;;;15.80;99.90;;;;;;5058380;28;20083;-71
2023/08/02 09:27:18;;;;;;;21.00;7.88;;;15.90;99.90;;;;;;5050412;28;261530;-71
2023/08/02 09:29:52;;;;;;;19.25;7.32;;;15.90;99.90;;;;;;5067063;28;20048;-72
2023/08/02 09:32:21;;;;;;;18.27;6.85;;;16.00;99.90;;;;;;5053381;28;116699;-71
2023/08/02 09:34:50;;;;;;;16.13;6.60;;;16.00;99.90;;;;;;5052870;28;20057;-71
2023/08/02 09:37:28;;;;;;;18.08;7.13;;;16.00;99.90;;;;;;5032568;28;262970;-70
2023/08/02 09:39:54;;;;;;;17.85;7.32;;;16.00;99.90;;;;;;5070875;28;20059;-71
2023/08/02 09:42:25;;;;;;;23.63;7.75;;;16.10;99.90;;;;;;5056087;28;262289;-71
2023/08/02 09:45:00;;;;;;;18.55;7.35;;;16.20;99.90;;;;;;5063545;28;20063;-71
2023/08/02 09:47:27;;;;;;;15.18;6.90;;;16.20;99.90;;;;;;5054749;28;36360;-71
2023/08/02 09:50:23;;;;;;;15.25;5.80;;;16.20;99.90;;;;;;5065493;28;20055;-70
2023/08/02 09:52:49;;;;;;;17.33;6.50;;;16.20;99.90;;;;;;5023083;28;266580;-71
2023/08/02 09:55:15;;;;;;;15.95;6.60;;;16.10;99.90;;;;;;5068381;28;20510;-71
2023/08/02 09:57:44;;;;;;;16.67;6.13;;;16.10;99.90;;;;;;5053303;28;286564;-70
2023/08/02 10:00:11;;;;;;;14.65;6.03;;;16.10;99.90;;;;;;5072045;28;20055;-71
2023/08/02 10:02:38;;;;;;;17.40;6.63;;;16.00;99.90;;;;;;5054591;28;260237;-72
2023/08/02 10:05:15;;;;;;;18.30;6.40;;;16.10;99.90;;;;;;5071639;28;20507;-73
2023/08/02 10:07:48;;;;;;;14.95;6.07;;;16.20;99.90;;;;;;5040714;28;234577;-73
2023/08/02 10:10:33;;;;;;;14.95;5.97;;;16.30;99.90;;;;;;5047140;28;20052;-74
2023/08/02 10:13:08;;;;;;;13.63;5.45;;;16.30;99.90;;;;;;5058017;28;41811;-73
2023/08/02 10:15:38;;;;;;;12.30;5.07;;;16.30;99.90;;;;;;5066360;28;20064;-73
2023/08/02 10:18:04;;;;;;;13.55;5.60;;;16.30;99.90;;;;;;5056483;28;177865;-73
2023/08/02 10:20:31;;;;;;;14.30;5.93;;;16.40;99.90;;;;;;5058418;28;20523;-74
2023/08/02 10:22:58;;;;;;;11.57;4.97;;;16.50;99.90;;;;;;5060576;28;264660;-74
2023/08/02 10:25:24;;;;;;;11.05;4.85;;;16.50;99.90;;;;;;5063069;28;20040;-73
2023/08/02 10:27:52;;;;;;;11.10;4.20;;;16.50;99.90;;;;;;5054035;28;268015;-74
2023/08/02 10:30:18;;;;;;;11.85;4.07;;;16.40;99.90;;;;;;5063119;28;20195;-74
2023/08/02 10:33:23;;;;;;;13.18;4.40;;;16.40;99.90;;;;;;5057619;28;274391;-74
2023/08/02 10:36:15;;;;;;;10.77;3.30;;;16.50;99.90;;;;;;5062165;28;20096;-73
2023/08/02 10:38:47;;;;;;;10.15;3.38;;;16.60;99.90;;;;;;5057809;28;194451;-74
2023/08/02 10:41:14;;;;;;;8.00;2.85;;;16.50;99.90;;;;;;5050482;28;20075;-73
2023/08/02 10:43:53;;;;;;;9.65;2.78;;;16.40;99.90;;;;;;5068517;28;83804;-73
2023/08/02 10:46:26;;;;;;;7.20;2.80;;;16.40;99.90;;;;;;5079590;28;20419;-72
2023/08/02 10:49:13;;;;;;;8.57;3.03;;;16.50;99.90;;;;;;5061881;28;271182;-72
2023/08/02 10:51:39;;;;;;;8.30;2.60;;;16.70;99.90;;;;;;5024213;28;272149;-72
2023/08/02 10:54:15;;;;;;;8.38;2.65;;;16.80;99.90;;;;;;5048960;28;20064;-72
2023/08/02 10:56:54;;;;;;;8.05;2.58;;;16.90;99.90;;;;;;5047145;28;280213;-72
2023/08/02 10:59:23;;;;;;;8.30;2.60;;;16.90;99.90;;;;;;5055098;28;20063;-72
2023/08/02 11:01:58;;;;;;;9.55;2.53;;;16.90;99.90;;;;;;5064306;28;267657;-72
2023/08/02 11:04:25;;;;;;;6.85;2.10;;;17.00;99.90;;;;;;5038860;28;20045;-71
2023/08/02 11:06:52;;;;;;;7.73;2.07;;;17.10;99.90;;;;;;5049186;28;265825;-71
2023/08/02 11:09:29;;;;;;;7.53;2.33;;;17.40;99.90;;;;;;5059379;28;20061;-71
2023/08/02 11:11:55;;;;;;;7.28;2.00;;;17.60;99.90;;;;;;5043172;28;254738;-71
2023/08/02 11:14:27;;;;;;;6.53;2.00;;;17.80;99.90;;;;;;5066069;28;20072;-72
2023/08/02 11:16:54;;;;;;;8.48;2.08;;;17.80;99.90;;;;;;5053625;28;248709;-72
2023/08/02 11:19:24;;;;;;;7.57;2.05;;;17.80;99.90;;;;;;5080409;28;20227;-72
2023/08/02 11:21:56;;;;;;;6.70;1.90;;;17.80;99.90;;;;;;5043780;28;263292;-72
2023/08/02 11:24:24;;;;;;;7.82;2.00;;;17.90;99.90;;;;;;5075235;28;20052;-72
2023/08/02 11:26:54;;;;;;;6.72;1.65;;;17.90;99.90;;;;;;5051833;28;254810;-73
2023/08/02 11:29:21;;;;;;;6.32;1.80;;;17.80;99.90;;;;;;5081080;28;20079;-72
2023/08/02 11:32:02;;;;;;;6.10;1.58;;;17.90;99.90;;;;;;5053688;28;267252;-73
2023/08/02 11:34:28;;;;;;;5.88;1.50;;;18.00;99.90;;;;;;5081394;28;20427;-72
2023/08/02 11:36:55;;;;;;;5.60;1.38;;;18.20;99.90;;;;;;5050737;28;274738;-72
2023/08/02 11:39:21;;;;;;;6.05;1.60;;;18.40;99.90;;;;;;5056835;28;20068;-73
2023/08/02 11:42:03;;;;;;;5.53;1.42;;;18.60;99.90;;;;;;5054020;28;279659;-72
2023/08/02 11:44:30;;;;;;;5.20;1.52;;;18.90;99.90;;;;;;5077726;28;20055;-73
2023/08/02 11:46:57;;;;;;;5.60;1.40;;;19.30;99.90;;;;;;5055378;28;277689;-73
2023/08/02 11:49:23;;;;;;;4.22;1.20;;;19.50;99.90;;;;;;5085003;28;20342;-72
2023/08/02 11:51:50;;;;;;;4.95;1.30;;;19.70;99.90;;;;;;5027410;28;257360;-73
2023/08/02 11:54:16;;;;;;;3.83;1.20;;;19.80;99.90;;;;;;5069079;28;20056;-73
2023/08/02 11:56:42;;;;;;;2.80;1.00;;;20.10;99.90;;;;;;5053197;28;269256;-73
2023/08/02 11:59:12;;;;;;;4.45;1.00;;;20.30;99.90;;;;;;5064002;28;20684;-74
2023/08/02 12:01:44;;;;;;;4.82;1.20;;;20.20;99.90;;;;;;5046262;28;265576;-73
2023/08/02 12:04:10;;;;;;;7.05;1.48;;;20.10;99.90;;;;;;5074629;28;20052;-74
2023/08/02 12:06:49;;;;;;;4.93;1.13;;;20.00;99.90;;;;;;5027552;28;272111;-73
2023/08/02 12:09:16;;;;;;;4.82;1.27;;;20.10;99.90;;;;;;5058085;28;20060;-73
2023/08/02 12:11:43;;;;;;;5.03;1.40;;;20.20;99.90;;;;;;5051756;28;275026;-74
2023/08/02 12:14:09;;;;;;;5.00;1.40;;;20.20;99.90;;;;;;5068364;28;20053;-75
2023/08/02 12:16:43;;;;;;;7.32;1.60;;;20.30;99.90;;;;;;5050808;28;263999;-74
2023/08/02 12:19:10;;;;;;;5.00;1.45;;;20.20;99.90;;;;;;5068564;28;20561;-75
2023/08/02 12:21:37;;;;;;;4.93;1.50;;;19.90;99.90;;;;;;5046491;28;262769;-73
2023/08/02 12:24:16;;;;;;;6.30;1.63;;;19.80;99.90;;;;;;5055632;28;20075;-74
2023/08/02 12:26:43;;;;;;;5.82;1.70;;;19.90;99.90;;;;;;5051456;28;267224;-73
2023/08/02 12:29:24;;;;;;;4.72;1.60;;;19.90;99.90;;;;;;5062531;28;20076;-72
2023/08/02 12:31:53;;;;;;;6.03;1.95;;;19.90;99.90;;;;;;5055264;28;269609;-73
2023/08/02 12:34:19;;;;;;;6.65;2.00;;;19.80;99.90;;;;;;5069154;28;20048;-73
2023/08/02 12:36:49;;;;;;;6.65;2.10;;;20.10;99.90;;;;;;5045810;28;263482;-73